createdAt,value
2016-05-05T00:00:35.836Z,49.75
2016-05-05T00:01:35.807Z,49.85
2016-05-05T00:02:35.779Z,49.94
2016-05-05T00:03:35.750Z,50.04
2016-05-05T00:04:35.722Z,49.65
2016-05-05T00:05:35.708Z,49.85
2016-05-05T00:06:35.680Z,49.85
2016-05-05T00:07:35.652Z,50.04
2016-05-05T00:08:35.622Z,50.04
2016-05-05T00:09:35.611Z,49.75
2016-05-05T00:10:35.581Z,49.85
2016-05-05T00:11:35.553Z,50.04
2016-05-05T00:12:35.524Z,50.04
2016-05-05T00:13:35.496Z,50.32
2016-05-05T00:14:35.483Z,50.79
2016-05-05T00:15:35.454Z,50.48
2016-05-05T00:16:35.426Z,51.06
2016-05-05T00:17:35.396Z,50.6
2016-05-05T00:18:35.369Z,51.18
2016-05-05T00:19:35.355Z,50.39
2016-05-05T00:20:35.327Z,50.48
2016-05-05T00:21:35.299Z,50.87
2016-05-05T00:22:35.270Z,50.96
2016-05-05T00:23:35.241Z,50.87
2016-05-05T00:24:35.229Z,51.25
2016-05-05T00:25:35.200Z,51.15
2016-05-05T00:26:35.171Z,51.15
2016-05-05T00:27:35.143Z,51.62
2016-05-05T00:28:35.129Z,51.91
2016-05-05T00:29:35.101Z,52.1
2016-05-05T00:30:35.072Z,52.76
2016-05-05T00:31:35.045Z,52.39
2016-05-05T00:32:35.015Z,52.48
2016-05-05T00:33:34.986Z,52.86
2016-05-05T00:34:34.975Z,52.76
2016-05-05T00:35:34.945Z,53.15
2016-05-05T00:36:34.917Z,53.34
2016-05-05T00:37:34.889Z,53.53
2016-05-05T00:38:34.860Z,53.81
2016-05-05T00:39:34.831Z,53.72
2016-05-05T00:40:34.818Z,53.43
2016-05-05T00:41:34.789Z,53.53
2016-05-05T00:42:34.761Z,54.17
2016-05-05T00:43:34.749Z,54.55
2016-05-05T00:44:34.704Z,54.36
2016-05-05T00:45:34.691Z,54.64
2016-05-05T00:46:34.662Z,54.45
2016-05-05T00:47:34.635Z,54.45
2016-05-05T00:48:34.605Z,55.11
2016-05-05T00:49:34.577Z,55.21
2016-05-05T00:50:34.563Z,55.5
2016-05-05T00:51:34.536Z,54.83
2016-05-05T00:52:34.507Z,55.02
2016-05-05T00:53:34.479Z,55.11
2016-05-05T00:54:34.449Z,55.5
2016-05-05T00:55:34.421Z,55.59
2016-05-05T00:56:34.393Z,55.69
2016-05-05T00:57:34.365Z,55.97
2016-05-05T00:58:34.352Z,56.16
2016-05-05T00:59:34.323Z,55.88
2016-05-05T01:00:34.294Z,55.88
2016-05-05T01:01:34.265Z,55.97
2016-05-05T01:02:34.253Z,56.26
2016-05-05T01:03:34.223Z,56.45
2016-05-05T01:04:34.195Z,56.63
2016-05-05T01:05:34.167Z,56.54
2016-05-05T01:06:34.139Z,57.11
2016-05-05T01:07:34.109Z,57.11
2016-05-05T01:08:34.081Z,56.73
2016-05-05T01:09:34.052Z,57.21
2016-05-05T01:10:34.039Z,57.3
2016-05-05T01:11:34.011Z,57.59
2016-05-05T01:12:33.982Z,57.3
2016-05-05T01:13:33.954Z,57.4
2016-05-05T01:14:33.925Z,57.3
2016-05-05T01:15:33.897Z,57.78
2016-05-05T01:16:33.869Z,57.84
2016-05-05T01:17:33.855Z,57.59
2016-05-05T01:18:33.827Z,57.75
2016-05-05T01:19:33.798Z,57.59
2016-05-05T01:20:33.769Z,58.13
2016-05-05T01:21:33.741Z,58.41
2016-05-05T01:22:33.713Z,58.51
2016-05-05T01:23:33.699Z,58.22
2016-05-05T01:24:33.671Z,58.22
2016-05-05T01:25:33.643Z,58.32
2016-05-05T01:26:33.615Z,58.61
2016-05-05T01:27:33.585Z,58.61
2016-05-05T01:28:33.557Z,58.61
2016-05-05T01:29:33.528Z,58.7
2016-05-05T01:30:33.500Z,59.08
2016-05-05T01:31:33.487Z,59.08
2016-05-05T01:32:33.459Z,59.08
2016-05-05T01:33:33.429Z,59.08
2016-05-05T01:34:33.401Z,59.08
2016-05-05T01:35:33.373Z,58.98
2016-05-05T01:36:33.345Z,59.17
2016-05-05T01:37:33.315Z,59.36
2016-05-05T01:38:33.303Z,58.98
2016-05-05T01:39:33.274Z,58.89
2016-05-05T01:40:33.245Z,58.98
2016-05-05T01:41:33.217Z,58.98
2016-05-05T01:42:33.189Z,59.84
2016-05-05T01:43:33.160Z,59.74
2016-05-05T01:44:33.131Z,59.84
2016-05-05T01:45:33.103Z,59.74
2016-05-05T01:46:33.089Z,59.46
2016-05-05T01:47:33.060Z,59.93
2016-05-05T01:48:33.048Z,59.65
2016-05-05T01:49:33.004Z,59.74
2016-05-05T01:50:32.975Z,60.31
2016-05-05T01:51:32.947Z,60.13
2016-05-05T01:52:32.939Z,59.74
2016-05-05T01:53:32.953Z,60.13
2016-05-05T01:54:32.999Z,59.93
2016-05-05T01:55:32.997Z,60.03
2016-05-05T01:56:33.011Z,60.31
2016-05-05T01:57:33.011Z,60.31
2016-05-05T01:58:32.998Z,60.31
2016-05-05T01:59:33.000Z,60.22
2016-05-05T02:00:32.972Z,59.93
2016-05-05T02:01:32.959Z,59.84
2016-05-05T02:02:33.004Z,60.41
2016-05-05T02:03:32.934Z,60.31
2016-05-05T02:04:32.910Z,60.13
2016-05-05T02:05:32.889Z,60.31
2016-05-05T02:06:32.866Z,60.98
2016-05-05T02:07:32.840Z,60.88
2016-05-05T02:08:32.814Z,60.98
2016-05-05T02:09:32.804Z,60.79
2016-05-05T02:10:32.776Z,60.69
2016-05-05T02:11:32.749Z,60.79
2016-05-05T02:12:32.723Z,60.5
2016-05-05T02:13:32.696Z,60.88
2016-05-05T02:14:32.666Z,60.57
2016-05-05T02:15:32.640Z,60.66
2016-05-05T02:16:32.611Z,60.66
2016-05-05T02:17:32.584Z,60.57
2016-05-05T02:18:32.555Z,60.5
2016-05-05T02:19:32.527Z,60.66
2016-05-05T02:20:32.514Z,60.95
2016-05-05T02:21:32.486Z,60.69
2016-05-05T02:22:32.459Z,61.14
2016-05-05T02:23:32.432Z,61.33
2016-05-05T02:24:32.402Z,61.23
2016-05-05T02:25:32.374Z,61.04
2016-05-05T02:26:32.345Z,61.04
2016-05-05T02:27:32.317Z,61.23
2016-05-05T02:28:32.288Z,61.52
2016-05-05T02:29:32.260Z,61.71
2016-05-05T02:30:32.248Z,61.61
2016-05-05T02:31:32.218Z,61.71
2016-05-05T02:32:32.190Z,61.71
2016-05-05T02:33:32.161Z,62.18
2016-05-05T02:34:32.133Z,61.9
2016-05-05T02:35:32.104Z,61.8
2016-05-05T02:36:32.075Z,61.71
2016-05-05T02:37:32.047Z,61.9
2016-05-05T02:38:32.019Z,61.99
2016-05-05T02:39:32.006Z,61.99
2016-05-05T02:40:31.978Z,62.27
2016-05-05T02:41:31.948Z,62.66
2016-05-05T02:42:31.920Z,62.66
2016-05-05T02:43:31.891Z,62.75
2016-05-05T02:44:31.864Z,62.37
2016-05-05T02:45:31.834Z,62.56
2016-05-05T02:46:31.821Z,62.37
2016-05-05T02:47:31.777Z,62.56
2016-05-05T02:48:31.749Z,62.56
2016-05-05T02:49:31.719Z,62.46
2016-05-05T02:50:31.708Z,62.46
2016-05-05T02:51:31.679Z,62.85
2016-05-05T02:52:31.650Z,62.75
2016-05-05T02:53:31.621Z,62.56
2016-05-05T02:54:31.593Z,63.13
2016-05-05T02:55:31.565Z,63.23
2016-05-05T02:56:31.536Z,63.04
2016-05-05T02:57:31.507Z,63.13
2016-05-05T02:58:31.479Z,63.32
2016-05-05T02:59:31.451Z,63.23
2016-05-05T03:00:31.438Z,62.94
2016-05-05T03:01:31.409Z,63.6
2016-05-05T03:02:31.380Z,63.04
2016-05-05T03:03:31.351Z,63.32
2016-05-05T03:04:31.323Z,63.7
2016-05-05T03:05:31.295Z,63.51
2016-05-05T03:06:31.265Z,63.23
2016-05-05T03:07:31.237Z,63.6
2016-05-05T03:08:31.209Z,63.6
2016-05-05T03:09:31.196Z,63.6
2016-05-05T03:10:31.151Z,63.6
2016-05-05T03:11:31.122Z,63.79
2016-05-05T03:12:31.094Z,63.6
2016-05-05T03:13:31.066Z,63.6
2016-05-05T03:14:31.053Z,63.6
2016-05-05T03:15:31.024Z,63.86
2016-05-05T03:16:30.996Z,64.37
2016-05-05T03:17:30.967Z,64.46
2016-05-05T03:18:30.939Z,64.17
2016-05-05T03:19:30.911Z,64.37
2016-05-05T03:20:30.897Z,64.17
2016-05-05T03:21:30.868Z,64.27
2016-05-05T03:22:30.824Z,64.46
2016-05-05T03:23:30.796Z,64.43
2016-05-05T03:24:30.768Z,64.75
2016-05-05T03:25:30.739Z,64.33
2016-05-05T03:26:30.726Z,64.71
2016-05-05T03:27:30.697Z,64.81
2016-05-05T03:28:30.668Z,64.71
2016-05-05T03:29:30.641Z,65
2016-05-05T03:30:30.612Z,64.81
2016-05-05T03:31:30.582Z,65.09
2016-05-05T03:32:30.554Z,65
2016-05-05T03:33:30.526Z,65.37
2016-05-05T03:34:30.498Z,65.37
2016-05-05T03:35:30.469Z,65.19
2016-05-05T03:36:30.440Z,65.19
2016-05-05T03:37:30.412Z,65.19
2016-05-05T03:38:30.399Z,65.09
2016-05-05T03:39:30.370Z,65.28
2016-05-05T03:40:30.342Z,65.28
2016-05-05T03:41:30.313Z,65.47
2016-05-05T03:42:30.300Z,65.66
2016-05-05T03:43:30.256Z,65.37
2016-05-05T03:44:30.228Z,65.47
2016-05-05T03:45:30.199Z,65.47
2016-05-05T03:46:30.170Z,65.28
2016-05-05T03:47:30.142Z,65.56
2016-05-05T03:48:30.114Z,65.66
2016-05-05T03:49:30.085Z,65.85
2016-05-05T03:50:30.055Z,65.75
2016-05-05T03:51:30.027Z,66.04
2016-05-05T03:52:29.999Z,65.85
2016-05-05T03:53:29.970Z,66.04
2016-05-05T03:54:29.941Z,66.04
2016-05-05T03:55:29.929Z,66.23
2016-05-05T03:56:29.900Z,66.61
2016-05-05T03:57:29.872Z,66.52
2016-05-05T03:58:29.843Z,66.42
2016-05-05T03:59:29.815Z,66.33
2016-05-05T04:00:29.785Z,66.33
2016-05-05T04:01:29.757Z,66.8
2016-05-05T04:02:29.729Z,66.42
2016-05-05T04:03:29.700Z,66.61
2016-05-05T04:04:29.671Z,66.61
2016-05-05T04:05:29.643Z,66.42
2016-05-05T04:06:29.615Z,66.52
2016-05-05T04:07:29.587Z,66.52
2016-05-05T04:08:29.557Z,66.52
2016-05-05T04:09:29.529Z,66.71
2016-05-05T04:10:29.516Z,66.52
2016-05-05T04:11:29.487Z,66.99
2016-05-05T04:12:29.459Z,66.99
2016-05-05T04:13:29.431Z,66.8
2016-05-05T04:14:29.402Z,66.99
2016-05-05T04:15:29.373Z,66.8
2016-05-05T04:16:29.345Z,67.37
2016-05-05T04:17:29.317Z,67.56
2016-05-05T04:18:29.288Z,67.46
2016-05-05T04:19:29.259Z,67.46
2016-05-05T04:20:29.261Z,67.37
2016-05-05T04:21:29.202Z,67.27
2016-05-05T04:22:29.174Z,67.65
2016-05-05T04:23:29.144Z,67.85
2016-05-05T04:24:29.132Z,67.85
2016-05-05T04:25:29.103Z,67.94
2016-05-05T04:26:29.075Z,67.56
2016-05-05T04:27:29.047Z,67.75
2016-05-05T04:28:29.018Z,67.65
2016-05-05T04:29:28.989Z,67.65
2016-05-05T04:30:28.960Z,67.65
2016-05-05T04:31:28.932Z,67.85
2016-05-05T04:32:28.904Z,67.85
2016-05-05T04:33:28.874Z,67.65
2016-05-05T04:34:28.846Z,67.94
2016-05-05T04:35:28.817Z,67.65
2016-05-05T04:36:28.790Z,67.65
2016-05-05T04:37:28.760Z,68.32
2016-05-05T04:38:28.732Z,67.85
2016-05-05T04:39:29.110Z,67.75
2016-05-05T04:40:28.690Z,67.85
2016-05-05T04:41:28.662Z,67.65
2016-05-05T04:42:28.634Z,67.75
2016-05-05T04:43:28.605Z,67.85
2016-05-05T04:44:28.576Z,67.85
2016-05-05T04:45:28.548Z,67.75
2016-05-05T04:46:28.520Z,68.41
2016-05-05T04:47:28.491Z,68.23
2016-05-05T04:48:28.461Z,67.75
2016-05-05T04:49:28.434Z,67.65
2016-05-05T04:50:28.405Z,67.85
2016-05-05T04:51:28.377Z,67.65
2016-05-05T04:52:28.363Z,67.65
2016-05-05T04:53:28.320Z,68.04
2016-05-05T04:54:28.306Z,67.65
2016-05-05T04:55:28.277Z,67.94
2016-05-05T04:56:28.250Z,67.94
2016-05-05T04:57:28.221Z,67.85
2016-05-05T04:58:28.191Z,67.75
2016-05-05T04:59:28.164Z,67.65
2016-05-05T05:00:28.135Z,67.65
2016-05-05T05:01:28.107Z,67.85
2016-05-05T05:02:28.078Z,67.75
2016-05-05T05:03:28.049Z,67.37
2016-05-05T05:04:28.020Z,67.37
2016-05-05T05:05:28.007Z,67.37
2016-05-05T05:06:27.980Z,67.65
2016-05-05T05:07:27.951Z,67.5
2016-05-05T05:08:27.923Z,67.31
2016-05-05T05:09:27.893Z,67.12
2016-05-05T05:10:27.881Z,66.74
2016-05-05T05:11:27.836Z,67.02
2016-05-05T05:12:27.809Z,67.02
2016-05-05T05:13:27.779Z,66.93
2016-05-05T05:14:27.751Z,67.12
2016-05-05T05:15:27.723Z,66.55
2016-05-05T05:16:27.709Z,66.74
2016-05-05T05:17:27.680Z,66.46
2016-05-05T05:18:27.652Z,66.64
2016-05-05T05:19:27.623Z,66.36
2016-05-05T05:20:27.595Z,66.36
2016-05-05T05:21:27.567Z,66.36
2016-05-05T05:22:27.538Z,66.46
2016-05-05T05:23:27.509Z,66.17
2016-05-05T05:24:27.481Z,66.17
2016-05-05T05:25:27.452Z,66.17
2016-05-05T05:26:27.439Z,66.17
2016-05-05T05:27:27.410Z,65.98
2016-05-05T05:28:27.382Z,65.6
2016-05-05T05:29:27.369Z,65.5
2016-05-05T05:30:27.325Z,65.5
2016-05-05T05:31:27.296Z,65.22
2016-05-05T05:32:27.268Z,65.12
2016-05-05T05:33:27.255Z,65.44
2016-05-05T05:34:27.226Z,65.16
2016-05-05T05:35:27.198Z,65.16
2016-05-05T05:36:27.169Z,64.78
2016-05-05T05:37:27.140Z,64.59
2016-05-05T05:38:27.112Z,64.78
2016-05-05T05:39:27.099Z,64.21
2016-05-05T05:40:27.071Z,64.3
2016-05-05T05:41:27.042Z,64.49
2016-05-05T05:42:27.014Z,64.3
2016-05-05T05:43:26.984Z,63.92
2016-05-05T05:44:26.972Z,63.73
2016-05-05T05:45:26.928Z,63.92
2016-05-05T05:46:26.915Z,63.64
2016-05-05T05:47:26.886Z,63.07
2016-05-05T05:48:26.858Z,63.1
2016-05-05T05:49:26.829Z,63.29
2016-05-05T05:50:26.800Z,62.91
2016-05-05T05:51:26.772Z,62.72
2016-05-05T05:52:26.759Z,62.91
2016-05-05T05:53:26.730Z,62.62
2016-05-05T05:54:26.702Z,62.72
2016-05-05T05:55:26.674Z,61.96
2016-05-05T05:56:26.660Z,62.15
2016-05-05T05:57:26.632Z,61.8
2016-05-05T05:58:26.603Z,61.42
2016-05-05T05:59:26.591Z,61.42
2016-05-05T06:00:26.562Z,60.57
2016-05-05T06:01:26.533Z,60.66
2016-05-05T06:02:26.504Z,60.28
2016-05-05T06:03:26.491Z,60.75
2016-05-05T06:04:26.463Z,59.9
2016-05-05T06:05:26.435Z,59.93
2016-05-05T06:06:26.422Z,59.83
2016-05-05T06:07:26.393Z,59.27
2016-05-05T06:08:26.364Z,58.88
2016-05-05T06:09:26.351Z,58.4
2016-05-05T06:10:26.324Z,58.62
2016-05-05T06:11:26.310Z,57.87
2016-05-05T06:12:26.281Z,57.58
2016-05-05T06:13:26.268Z,57.01
2016-05-05T06:14:26.240Z,57.2
2016-05-05T06:15:26.227Z,56.44
2016-05-05T06:16:26.198Z,55.99
2016-05-05T06:17:26.186Z,55.7
2016-05-05T06:18:26.156Z,55.13
2016-05-05T06:19:26.144Z,55.22
2016-05-05T06:20:26.116Z,54.56
2016-05-05T06:21:26.087Z,54.49
2016-05-05T06:22:26.074Z,53.64
2016-05-05T06:23:26.055Z,53.64
2016-05-05T06:24:26.371Z,53.25
2016-05-05T06:25:26.013Z,52.71
2016-05-05T06:26:25.986Z,52.61
2016-05-05T06:27:25.972Z,51.95
2016-05-05T06:28:25.959Z,51.95
2016-05-05T06:29:25.931Z,51.56
2016-05-05T06:30:25.918Z,51.37
2016-05-05T06:31:25.890Z,50.8
2016-05-05T06:32:25.877Z,50.73
2016-05-05T06:33:25.848Z,51.12
2016-05-05T06:34:25.835Z,50.73
2016-05-05T06:35:25.822Z,49.97
2016-05-05T06:36:25.793Z,50.07
2016-05-05T06:37:25.781Z,49.59
2016-05-05T06:38:25.751Z,49.97
2016-05-05T06:39:25.739Z,49.78
2016-05-05T06:40:25.726Z,48.73
2016-05-05T06:41:25.697Z,49.21
2016-05-05T06:42:25.685Z,48.75
2016-05-05T06:43:25.656Z,48.66
2016-05-05T06:44:25.643Z,48.37
2016-05-05T06:45:25.630Z,48.28
2016-05-05T06:46:25.602Z,47.89
2016-05-05T06:47:25.589Z,47.71
2016-05-05T06:48:25.575Z,47.8
2016-05-05T06:49:25.547Z,46.77
2016-05-05T06:50:25.534Z,47.06
2016-05-05T06:51:25.521Z,46.77
2016-05-05T06:52:25.508Z,46.11
2016-05-05T06:53:25.480Z,46.39
2016-05-05T06:54:25.467Z,46.2
2016-05-05T06:55:25.438Z,45.72
2016-05-05T06:56:25.425Z,45.84
2016-05-05T06:57:25.413Z,45.27
2016-05-05T06:58:25.384Z,44.98
2016-05-05T06:59:25.371Z,44.98
2016-05-05T07:00:25.357Z,44.79
2016-05-05T07:01:25.346Z,44.6
2016-05-05T07:02:25.332Z,44.89
2016-05-05T07:03:25.304Z,44.12
2016-05-05T07:04:25.291Z,44.15
2016-05-05T07:05:25.279Z,43.66
2016-05-05T07:06:25.249Z,43.48
2016-05-05T07:07:25.252Z,43.38
2016-05-05T07:08:25.223Z,43.29
2016-05-05T07:09:25.210Z,42.73
2016-05-05T07:10:25.182Z,42.54
2016-05-05T07:11:25.169Z,42.07
2016-05-05T07:12:25.156Z,41.87
2016-05-05T07:13:25.143Z,41.58
2016-05-05T07:14:25.131Z,41.22
2016-05-05T07:15:25.117Z,40.55
2016-05-05T07:16:25.103Z,40.08
2016-05-05T07:17:25.076Z,39.98
2016-05-05T07:18:25.063Z,39.52
2016-05-05T07:19:25.050Z,39.23
2016-05-05T07:20:25.036Z,38.85
2016-05-05T07:21:25.039Z,38.78
2016-05-05T07:22:25.011Z,38.49
2016-05-05T07:23:24.997Z,38.1
2016-05-05T07:24:24.985Z,37.63
2016-05-05T07:25:24.972Z,37.34
2016-05-05T07:26:24.960Z,36.86
2016-05-05T07:27:24.946Z,36.86
2016-05-05T07:28:24.933Z,36.4
2016-05-05T07:29:24.921Z,36.02
2016-05-05T07:30:24.892Z,35.92
2016-05-05T07:31:24.894Z,36.11
2016-05-05T07:32:24.882Z,35.35
2016-05-05T07:33:24.854Z,34.96
2016-05-05T07:34:24.856Z,34.59
2016-05-05T07:35:24.827Z,34.41
2016-05-05T07:36:24.815Z,34.22
2016-05-05T07:37:24.801Z,33.92
2016-05-05T07:38:24.804Z,33.84
2016-05-05T07:39:25.103Z,33.65
2016-05-05T07:40:24.779Z,33.47
2016-05-05T07:41:24.765Z,33.17
2016-05-05T07:42:24.752Z,32.89
2016-05-05T07:43:24.740Z,32.7
2016-05-05T07:44:24.726Z,32.51
2016-05-05T07:45:24.714Z,32.12
2016-05-05T07:46:24.700Z,32.03
2016-05-05T07:47:24.687Z,31.66
2016-05-05T07:48:24.675Z,31.18
2016-05-05T07:49:24.661Z,30.32
2016-05-05T07:50:24.650Z,29.83
2016-05-05T07:51:24.636Z,29.26
2016-05-05T07:52:24.623Z,29.06
2016-05-05T07:53:24.610Z,28.39
2016-05-05T07:54:25.441Z,28.3
2016-05-05T07:55:24.583Z,27.73
2016-05-05T07:56:24.586Z,27.55
2016-05-05T07:57:24.574Z,27.16
2016-05-05T07:58:24.561Z,27.06
2016-05-05T07:59:24.549Z,26.59
2016-05-05T08:00:24.535Z,26.7
2016-05-05T08:01:24.522Z,26.12
2016-05-05T08:02:24.524Z,25.64
2016-05-05T08:03:24.496Z,25.35
2016-05-05T08:04:24.499Z,24.79
2016-05-05T08:05:24.486Z,24.69
2016-05-05T08:06:24.474Z,24.6
2016-05-05T08:07:24.460Z,24.03
2016-05-05T08:08:24.447Z,23.93
2016-05-05T08:09:24.451Z,23.55
2016-05-05T08:10:24.437Z,23.46
2016-05-05T08:11:24.424Z,23.36
2016-05-05T08:12:24.411Z,23.16
2016-05-05T08:13:24.414Z,22.78
2016-05-05T08:14:24.401Z,22.6
2016-05-05T08:15:24.388Z,22.6
2016-05-05T08:16:24.375Z,22.22
2016-05-05T08:17:24.377Z,22.31
2016-05-05T08:18:24.365Z,22.02
2016-05-05T08:19:24.352Z,21.83
2016-05-05T08:20:24.339Z,21.75
2016-05-05T08:21:24.342Z,21.45
2016-05-05T08:22:24.329Z,21.35
2016-05-05T08:23:24.316Z,21.65
2016-05-05T08:24:24.319Z,21.65
2016-05-05T08:25:24.305Z,21.26
2016-05-05T08:26:24.292Z,21.36
2016-05-05T08:27:24.280Z,20.78
2016-05-05T08:28:24.283Z,20.31
2016-05-05T08:29:24.269Z,20.4
2016-05-05T08:30:24.257Z,20.02
2016-05-05T08:31:24.260Z,20.03
2016-05-05T08:32:24.246Z,19.93
2016-05-05T08:33:24.233Z,19.26
2016-05-05T08:34:24.236Z,19.36
2016-05-05T08:35:24.223Z,19.26
2016-05-05T08:36:24.226Z,19.07
2016-05-05T08:37:24.213Z,18.88
2016-05-05T08:38:24.199Z,18.4
2016-05-05T08:39:24.202Z,18.6
2016-05-05T08:40:24.189Z,18.59
2016-05-05T08:41:24.176Z,18.7
2016-05-05T08:42:24.195Z,18.21
2016-05-05T08:43:24.167Z,18.12
2016-05-05T08:44:24.169Z,17.92
2016-05-05T08:45:24.157Z,17.63
2016-05-05T08:46:24.143Z,17.35
2016-05-05T08:47:24.145Z,17.15
2016-05-05T08:48:24.133Z,17.35
2016-05-05T08:49:24.136Z,17.05
2016-05-05T08:50:24.123Z,16.86
2016-05-05T08:51:24.109Z,16.67
2016-05-05T08:52:24.112Z,16.57
2016-05-05T08:53:24.100Z,16.57
2016-05-05T08:54:24.102Z,16.47
2016-05-05T08:55:24.089Z,16.29
2016-05-05T08:56:24.077Z,16.49
2016-05-05T08:57:24.080Z,16.1
2016-05-05T08:58:24.066Z,16.1
2016-05-05T08:59:24.068Z,16.1
2016-05-05T09:00:24.056Z,16.19
2016-05-05T09:01:24.059Z,16.1
2016-05-05T09:02:24.045Z,16.29
2016-05-05T09:03:24.049Z,16.1
2016-05-05T09:04:24.035Z,16.19
2016-05-05T09:05:24.038Z,16.29
2016-05-05T09:06:24.024Z,16.29
2016-05-05T09:07:24.012Z,16.19
2016-05-05T09:08:24.015Z,16.29
2016-05-05T09:09:24.002Z,16.19
2016-05-05T09:10:24.004Z,16
2016-05-05T09:11:23.992Z,16.1
2016-05-05T09:12:23.979Z,16.1
2016-05-05T09:13:23.982Z,16.29
2016-05-05T09:14:23.968Z,16.28
2016-05-05T09:15:23.971Z,16.28
2016-05-05T09:16:23.959Z,16.38
2016-05-05T09:17:23.962Z,16.09
2016-05-05T09:18:23.947Z,16.77
2016-05-05T09:19:23.951Z,16.58
2016-05-05T09:20:23.937Z,16.49
2016-05-05T09:21:23.925Z,16.67
2016-05-05T09:22:23.928Z,16.58
2016-05-05T09:23:23.930Z,16.2
2016-05-05T09:24:24.386Z,16.2
2016-05-05T09:25:23.904Z,16.11
2016-05-05T09:26:23.908Z,16.3
2016-05-05T09:27:23.894Z,16.59
2016-05-05T09:28:23.897Z,16.2
2016-05-05T09:29:23.884Z,16.3
2016-05-05T09:30:23.873Z,16.58
2016-05-05T09:31:23.880Z,16.29
2016-05-05T09:32:23.854Z,16.3
2016-05-05T09:33:23.856Z,16.39
2016-05-05T09:34:23.858Z,16.39
2016-05-05T09:35:23.846Z,16.39
2016-05-05T09:36:23.833Z,16.2
2016-05-05T09:37:23.835Z,16.01
2016-05-05T09:38:23.821Z,16.2
2016-05-05T09:39:23.872Z,15.83
2016-05-05T09:40:23.812Z,16.02
2016-05-05T09:41:23.815Z,16.11
2016-05-05T09:42:23.827Z,15.73
2016-05-05T09:43:23.799Z,15.73
2016-05-05T09:44:23.786Z,15.45
2016-05-05T09:45:23.788Z,15.83
2016-05-05T09:46:23.776Z,15.64
2016-05-05T09:47:23.778Z,15.64
2016-05-05T09:48:24.140Z,15.55
2016-05-05T09:49:23.768Z,15.26
2016-05-05T09:50:23.770Z,15.26
2016-05-05T09:51:23.758Z,15.35
2016-05-05T09:52:23.745Z,15.25
2016-05-05T09:53:23.747Z,15.36
2016-05-05T09:54:23.750Z,15.36
2016-05-05T09:55:23.737Z,15.07
2016-05-05T09:56:23.739Z,15.45
2016-05-05T09:57:23.727Z,15.36
2016-05-05T09:58:23.730Z,15.26
2016-05-05T09:59:23.716Z,15.45
2016-05-05T10:00:23.719Z,15.25
2016-05-05T10:01:23.707Z,15.64
2016-05-05T10:02:23.709Z,15.64
2016-05-05T10:03:23.712Z,15.73
2016-05-05T10:04:23.698Z,15.93
2016-05-05T10:05:23.685Z,15.93
2016-05-05T10:06:23.688Z,15.83
2016-05-05T10:07:23.691Z,16.02
2016-05-05T10:08:23.678Z,15.83
2016-05-05T10:09:23.681Z,16.21
2016-05-05T10:10:24.090Z,16.21
2016-05-05T10:11:23.686Z,16.21
2016-05-05T10:12:23.658Z,16.21
2016-05-05T10:13:23.660Z,16.02
2016-05-05T10:14:23.662Z,16.02
2016-05-05T10:15:23.666Z,15.83
2016-05-05T10:16:23.653Z,16.31
2016-05-05T10:17:23.639Z,16.6
2016-05-05T10:18:23.643Z,16.11
2016-05-05T10:19:23.630Z,16.69
2016-05-05T10:20:23.632Z,16.21
2016-05-05T10:21:23.620Z,16.31
2016-05-05T10:22:23.622Z,16.21
2016-05-05T10:23:23.609Z,16.21
2016-05-05T10:24:23.689Z,16.6
2016-05-05T10:25:23.599Z,16.41
2016-05-05T10:26:23.602Z,16.41
2016-05-05T10:27:23.589Z,16.21
2016-05-05T10:28:24.435Z,16.21
2016-05-05T10:29:23.578Z,16.41
2016-05-05T10:30:23.580Z,16.6
2016-05-05T10:31:23.568Z,17.08
2016-05-05T10:32:23.587Z,16.89
2016-05-05T10:33:23.558Z,17.18
2016-05-05T10:34:23.561Z,17.08
2016-05-05T10:35:23.548Z,17.08
2016-05-05T10:36:23.551Z,16.89
2016-05-05T10:37:23.538Z,16.79
2016-05-05T10:38:23.540Z,16.89
2016-05-05T10:39:23.527Z,16.69
2016-05-05T10:40:23.514Z,16.69
2016-05-05T10:41:23.517Z,17.18
2016-05-05T10:42:23.504Z,17.08
2016-05-05T10:43:23.491Z,17.18
2016-05-05T10:44:23.493Z,17.47
2016-05-05T10:45:23.481Z,17.27
2016-05-05T10:46:23.484Z,17.65
2016-05-05T10:47:23.471Z,17.84
2016-05-05T10:48:23.458Z,17.94
2016-05-05T10:49:23.461Z,18.13
2016-05-05T10:50:23.463Z,17.94
2016-05-05T10:51:23.434Z,17.84
2016-05-05T10:52:23.437Z,17.83
2016-05-05T10:53:23.424Z,18.12
2016-05-05T10:54:23.411Z,18.12
2016-05-05T10:55:23.398Z,18.12
2016-05-05T10:56:23.398Z,17.65
2016-05-05T10:57:23.386Z,18.13
2016-05-05T10:58:23.372Z,17.93
2016-05-05T10:59:23.407Z,18.13
2016-05-05T11:00:23.438Z,17.75
2016-05-05T11:01:23.468Z,17.94
2016-05-05T11:02:23.515Z,17.84
2016-05-05T11:03:23.545Z,18.04
2016-05-05T11:04:23.556Z,18.13
2016-05-05T11:05:23.575Z,17.93
2016-05-05T11:06:23.577Z,18.04
2016-05-05T11:07:23.580Z,18.12
2016-05-05T11:08:23.598Z,18.12
2016-05-05T11:09:23.595Z,18.22
2016-05-05T11:10:23.587Z,18.32
2016-05-05T11:11:23.580Z,18.41
2016-05-05T11:12:23.572Z,18.32
2016-05-05T11:13:23.564Z,18.12
2016-05-05T11:14:23.569Z,18.12
2016-05-05T11:15:23.559Z,18.22
2016-05-05T11:16:23.547Z,18.32
2016-05-05T11:17:23.536Z,18.51
2016-05-05T11:18:23.525Z,18.41
2016-05-05T11:19:23.530Z,18.6
2016-05-05T11:20:23.517Z,18.6
2016-05-05T11:21:23.505Z,18.41
2016-05-05T11:22:23.493Z,18.41
2016-05-05T11:23:23.493Z,18.6
2016-05-05T11:24:23.480Z,18.51
2016-05-05T11:25:23.468Z,18.6
2016-05-05T11:26:23.455Z,18.4
2016-05-05T11:27:23.458Z,18.79
2016-05-05T11:28:23.430Z,18.88
2016-05-05T11:29:23.433Z,18.88
2016-05-05T11:30:23.420Z,19.18
2016-05-05T11:31:23.407Z,19.08
2016-05-05T11:32:23.395Z,19.37
2016-05-05T11:33:23.382Z,19.27
2016-05-05T11:34:23.369Z,19.46
2016-05-05T11:35:23.355Z,19.37
2016-05-05T11:36:23.343Z,18.98
2016-05-05T11:37:23.346Z,18.98
2016-05-05T11:38:23.316Z,18.7
2016-05-05T11:39:23.319Z,18.79
2016-05-05T11:40:23.308Z,18.88
2016-05-05T11:41:23.294Z,18.9
2016-05-05T11:42:23.281Z,18.99
2016-05-05T11:43:23.268Z,18.88
2016-05-05T11:44:23.255Z,19.27
2016-05-05T11:45:23.242Z,18.8
2016-05-05T11:46:23.230Z,18.79
2016-05-05T11:47:23.216Z,18.9
2016-05-05T11:48:23.219Z,18.6
2016-05-05T11:49:23.206Z,18.41
2016-05-05T11:50:23.193Z,18.5
2016-05-05T11:51:23.180Z,18.51
2016-05-05T11:52:23.167Z,18.6
2016-05-05T11:53:23.154Z,18.7
2016-05-05T11:54:23.142Z,18.6
2016-05-05T11:55:23.129Z,18.7
2016-05-05T11:56:23.116Z,18.7
2016-05-05T11:57:23.118Z,18.7
2016-05-05T11:58:23.090Z,18.6
2016-05-05T11:59:23.076Z,18.7
2016-05-05T12:00:23.064Z,18.7
2016-05-05T12:01:23.050Z,18.51
2016-05-05T12:02:23.038Z,18.41
2016-05-05T12:03:23.025Z,18.32
2016-05-05T12:04:23.012Z,18.12
2016-05-05T12:05:23.015Z,18.32
2016-05-05T12:06:23.002Z,18.52
2016-05-05T12:07:22.989Z,18.7
2016-05-05T12:08:22.975Z,18.6
2016-05-05T12:09:23.869Z,18.8
2016-05-05T12:10:22.950Z,18.8
2016-05-05T12:11:22.953Z,18.99
2016-05-05T12:12:22.924Z,19.18
2016-05-05T12:13:22.911Z,18.99
2016-05-05T12:14:22.898Z,19.28
2016-05-05T12:15:22.885Z,19.47
2016-05-05T12:16:22.871Z,19.18
2016-05-05T12:17:22.860Z,19.28
2016-05-05T12:18:22.847Z,19.18
2016-05-05T12:19:22.849Z,19.57
2016-05-05T12:20:22.837Z,20.05
2016-05-05T12:21:22.823Z,20.15
2016-05-05T12:22:22.810Z,19.95
2016-05-05T12:23:22.797Z,20.34
2016-05-05T12:24:22.784Z,21.3
2016-05-05T12:25:22.772Z,21.1
2016-05-05T12:26:22.759Z,21.3
2016-05-05T12:27:22.746Z,21.39
2016-05-05T12:28:22.733Z,21.68
2016-05-05T12:29:22.720Z,21.78
2016-05-05T12:30:22.706Z,21.48
2016-05-05T12:31:22.695Z,21.88
2016-05-05T12:32:22.681Z,21.58
2016-05-05T12:33:22.667Z,21.2
2016-05-05T12:34:22.655Z,21.3
2016-05-05T12:35:22.642Z,21.1
2016-05-05T12:36:22.644Z,20.91
2016-05-05T12:37:22.632Z,20.81
2016-05-05T12:38:22.603Z,21.01
2016-05-05T12:39:22.606Z,21.2
2016-05-05T12:40:22.593Z,21.39
2016-05-05T12:41:22.580Z,21.88
2016-05-05T12:42:22.567Z,21.88
2016-05-05T12:43:22.569Z,21.68
2016-05-05T12:44:22.541Z,21.78
2016-05-05T12:45:22.529Z,21.88
2016-05-05T12:46:22.516Z,21.68
2016-05-05T12:47:22.518Z,21.78
2016-05-05T12:48:22.490Z,21.59
2016-05-05T12:49:22.493Z,21.88
2016-05-05T12:50:22.479Z,22.36
2016-05-05T12:51:22.466Z,22.06
2016-05-05T12:52:22.453Z,21.88
2016-05-05T12:53:22.440Z,21.59
2016-05-05T12:54:22.428Z,21.79
2016-05-05T12:55:22.743Z,21.88
2016-05-05T12:56:22.402Z,21.88